sensor_id;sensor_type;location;lat;lon;timestamp;pressure;altitude;pressure_sealevel;temperature;humidity
45285;BME280;31026;43.780;25.948;2022-11-18T00:00:21;99797.28;;;19.13;72.03
45285;BME280;31026;43.780;25.948;2022-11-18T00:02:50;99802.78;;;19.11;71.76
45285;BME280;31026;43.780;25.948;2022-11-18T00:05:18;99800.59;;;19.06;71.73
45285;BME280;31026;43.780;25.948;2022-11-18T00:07:49;99791.88;;;19.04;71.93
45285;BME280;31026;43.780;25.948;2022-11-18T00:10:17;99788.19;;;19.05;71.68
45285;BME280;31026;43.780;25.948;2022-11-18T00:12:46;99784.97;;;19.02;71.30
45285;BME280;31026;43.780;25.948;2022-11-18T00:15:26;99789.19;;;19.04;71.25
45285;BME280;31026;43.780;25.948;2022-11-18T00:17:55;99784.97;;;19.02;70.74
45285;BME280;31026;43.780;25.948;2022-11-18T00:20:23;99791.03;;;19.04;70.76
45285;BME280;31026;43.780;25.948;2022-11-18T00:22:54;99792.31;;;19.26;71.04
45285;BME280;31026;43.780;25.948;2022-11-18T00:25:22;99795.53;;;19.80;70.44
45285;BME280;31026;43.780;25.948;2022-11-18T00:27:50;99795.25;;;20.41;68.98
45285;BME280;31026;43.780;25.948;2022-11-18T00:30:19;99795.78;;;20.69;68.20
45285;BME280;31026;43.780;25.948;2022-11-18T00:32:47;99798.94;;;20.64;68.71
45285;BME280;31026;43.780;25.948;2022-11-18T00:35:15;99789.84;;;20.90;67.72
45285;BME280;31026;43.780;25.948;2022-11-18T00:37:44;99794.03;;;20.84;68.06
45285;BME280;31026;43.780;25.948;2022-11-18T00:40:15;99795.19;;;20.98;67.75
45285;BME280;31026;43.780;25.948;2022-11-18T00:42:43;99774.28;;;20.61;68.12
45285;BME280;31026;43.780;25.948;2022-11-18T00:45:18;99794.56;;;20.14;68.83
45285;BME280;31026;43.780;25.948;2022-11-18T00:47:47;99787.81;;;19.85;69.33
45285;BME280;31026;43.780;25.948;2022-11-18T00:50:15;99792.00;;;19.72;69.26
45285;BME280;31026;43.780;25.948;2022-11-18T00:52:44;99790.09;;;19.64;69.40
45285;BME280;31026;43.780;25.948;2022-11-18T00:55:14;99796.81;;;19.60;69.20
45285;BME280;31026;43.780;25.948;2022-11-18T00:57:43;99790.91;;;19.48;69.54
45285;BME280;31026;43.780;25.948;2022-11-18T01:00:12;99788.53;;;19.45;69.52
45285;BME280;31026;43.780;25.948;2022-11-18T01:02:40;99789.53;;;19.44;69.33
45285;BME280;31026;43.780;25.948;2022-11-18T01:05:09;99778.59;;;19.37;69.06
45285;BME280;31026;43.780;25.948;2022-11-18T01:07:37;99785.97;;;19.35;68.95
45285;BME280;31026;43.780;25.948;2022-11-18T01:10:05;99782.75;;;19.32;69.02
45285;BME280;31026;43.780;25.948;2022-11-18T01:12:37;99776.91;;;19.28;68.90
45285;BME280;31026;43.780;25.948;2022-11-18T01:15:17;99779.91;;;19.25;68.74
45285;BME280;31026;43.780;25.948;2022-11-18T01:17:46;99790.47;;;19.26;68.83
45285;BME280;31026;43.780;25.948;2022-11-18T01:20:14;99783.59;;;19.24;68.86
45285;BME280;31026;43.780;25.948;2022-11-18T01:22:42;99775.19;;;19.19;68.86
45285;BME280;31026;43.780;25.948;2022-11-18T01:25:11;99785.75;;;19.20;68.56
45285;BME280;31026;43.780;25.948;2022-11-18T01:27:41;99762.78;;;19.18;68.46
45285;BME280;31026;43.780;25.948;2022-11-18T01:30:10;99754.06;;;19.16;68.28
45285;BME280;31026;43.780;25.948;2022-11-18T01:32:41;99764.78;;;19.16;68.39
45285;BME280;31026;43.780;25.948;2022-11-18T01:35:09;99761.59;;;19.12;68.54
45285;BME280;31026;43.780;25.948;2022-11-18T01:37:38;99765.41;;;19.10;68.50
45285;BME280;31026;43.780;25.948;2022-11-18T01:40:07;99756.41;;;19.11;67.76
45285;BME280;31026;43.780;25.948;2022-11-18T01:42:35;99755.88;;;19.07;68.35
45285;BME280;31026;43.780;25.948;2022-11-18T01:45:13;99756.03;;;19.05;68.15
45285;BME280;31026;43.780;25.948;2022-11-18T01:47:43;99761.38;;;19.05;68.02
45285;BME280;31026;43.780;25.948;2022-11-18T01:50:12;99762.06;;;19.07;67.48
45285;BME280;31026;43.780;25.948;2022-11-18T01:52:42;99766.13;;;19.20;68.38
45285;BME280;31026;43.780;25.948;2022-11-18T01:55:12;99763.00;;;19.83;67.41
45285;BME280;31026;43.780;25.948;2022-11-18T01:57:41;99753.28;;;20.48;65.80
45285;BME280;31026;43.780;25.948;2022-11-18T02:00:14;99749.91;;;20.71;65.49
45285;BME280;31026;43.780;25.948;2022-11-18T02:02:42;99753.25;;;20.73;65.33
45285;BME280;31026;43.780;25.948;2022-11-18T02:05:11;99762.50;;;20.78;65.25
45285;BME280;31026;43.780;25.948;2022-11-18T02:07:40;99751.22;;;20.91;65.08
45285;BME280;31026;43.780;25.948;2022-11-18T02:10:15;99758.59;;;20.97;64.78
45285;BME280;31026;43.780;25.948;2022-11-18T02:12:44;99759.31;;;20.58;65.00
45285;BME280;31026;43.780;25.948;2022-11-18T02:15:15;99768.72;;;20.13;65.78
45285;BME280;31026;43.780;25.948;2022-11-18T02:17:47;99767.22;;;19.86;66.22
45285;BME280;31026;43.780;25.948;2022-11-18T02:20:23;99765.00;;;19.73;66.38
45285;BME280;31026;43.780;25.948;2022-11-18T02:22:59;99760.41;;;19.65;66.16
45285;BME280;31026;43.780;25.948;2022-11-18T02:25:33;99765.59;;;19.59;66.39
45285;BME280;31026;43.780;25.948;2022-11-18T02:28:14;99769.09;;;19.51;66.57
45285;BME280;31026;43.780;25.948;2022-11-18T02:30:52;99772.44;;;19.45;66.42
45285;BME280;31026;43.780;25.948;2022-11-18T02:33:25;99769.22;;;19.41;66.77
45285;BME280;31026;43.780;25.948;2022-11-18T02:35:56;99780.16;;;19.40;66.71
45285;BME280;31026;43.780;25.948;2022-11-18T02:38:30;99775.94;;;19.37;66.29
45285;BME280;31026;43.780;25.948;2022-11-18T02:41:01;99761.16;;;19.33;66.15
45285;BME280;31026;43.780;25.948;2022-11-18T02:43:32;99779.25;;;19.31;66.24
45285;BME280;31026;43.780;25.948;2022-11-18T02:46:05;99769.69;;;19.28;66.28
45285;BME280;31026;43.780;25.948;2022-11-18T02:48:35;99785.94;;;19.27;65.82
45285;BME280;31026;43.780;25.948;2022-11-18T02:51:06;99776.41;;;19.24;66.25
45285;BME280;31026;43.780;25.948;2022-11-18T02:53:35;99765.97;;;19.21;66.06
45285;BME280;31026;43.780;25.948;2022-11-18T02:56:05;99763.44;;;19.20;66.03
45285;BME280;31026;43.780;25.948;2022-11-18T02:58:34;99771.69;;;19.18;66.04
45285;BME280;31026;43.780;25.948;2022-11-18T03:01:05;99757.22;;;19.11;66.41
45285;BME280;31026;43.780;25.948;2022-11-18T03:03:34;99762.97;;;19.16;66.24
45285;BME280;31026;43.780;25.948;2022-11-18T03:06:06;99756.41;;;19.11;66.26
45285;BME280;31026;43.780;25.948;2022-11-18T03:08:37;99766.09;;;19.12;65.80
45285;BME280;31026;43.780;25.948;2022-11-18T03:11:08;99774.13;;;19.12;65.84
45285;BME280;31026;43.780;25.948;2022-11-18T03:13:40;99762.59;;;19.11;65.93
45285;BME280;31026;43.780;25.948;2022-11-18T03:16:15;99763.38;;;19.03;65.86
45285;BME280;31026;43.780;25.948;2022-11-18T03:18:46;99777.84;;;19.11;65.55
45285;BME280;31026;43.780;25.948;2022-11-18T03:21:19;99780.50;;;19.11;65.81
45285;BME280;31026;43.780;25.948;2022-11-18T03:23:53;99766.78;;;19.56;65.76
45285;BME280;31026;43.780;25.948;2022-11-18T03:26:23;99773.94;;;20.23;64.27
45285;BME280;31026;43.780;25.948;2022-11-18T03:28:54;99781.47;;;20.85;63.08
45285;BME280;31026;43.780;25.948;2022-11-18T03:31:27;99774.06;;;20.79;63.17
45285;BME280;31026;43.780;25.948;2022-11-18T03:33:57;99761.97;;;20.91;62.87
45285;BME280;31026;43.780;25.948;2022-11-18T03:36:27;99774.19;;;21.02;62.72
45285;BME280;31026;43.780;25.948;2022-11-18T03:38:57;99765.94;;;21.12;62.48
45285;BME280;31026;43.780;25.948;2022-11-18T03:41:26;99761.59;;;20.94;62.60
45285;BME280;31026;43.780;25.948;2022-11-18T03:44:04;99767.72;;;20.39;63.40
45285;BME280;31026;43.780;25.948;2022-11-18T03:46:37;99769.25;;;20.00;64.12
45285;BME280;31026;43.780;25.948;2022-11-18T03:49:07;99775.41;;;19.84;64.77
45285;BME280;31026;43.780;25.948;2022-11-18T03:51:38;99775.06;;;19.71;64.35
45285;BME280;31026;43.780;25.948;2022-11-18T03:54:11;99757.91;;;19.64;64.27
45285;BME280;31026;43.780;25.948;2022-11-18T03:56:41;99763.09;;;19.57;64.82
45285;BME280;31026;43.780;25.948;2022-11-18T03:59:11;99779.97;;;19.50;64.61
45285;BME280;31026;43.780;25.948;2022-11-18T04:01:43;99758.19;;;19.44;64.58
45285;BME280;31026;43.780;25.948;2022-11-18T04:04:14;99774.72;;;19.32;65.57
45285;BME280;31026;43.780;25.948;2022-11-18T04:06:44;99781.88;;;19.15;66.86
45285;BME280;31026;43.780;25.948;2022-11-18T04:09:16;99772.44;;;19.02;67.47
45285;BME280;31026;43.780;25.948;2022-11-18T04:11:47;99774.06;;;18.95;67.99
45285;BME280;31026;43.780;25.948;2022-11-18T04:14:30;99776.41;;;18.90;68.08
45285;BME280;31026;43.780;25.948;2022-11-18T04:17:03;99776.69;;;18.87;68.46
45285;BME280;31026;43.780;25.948;2022-11-18T04:19:32;99772.31;;;18.86;68.78
45285;BME280;31026;43.780;25.948;2022-11-18T04:22:01;99777.00;;;18.84;68.69
45285;BME280;31026;43.780;25.948;2022-11-18T04:24:29;99784.53;;;18.80;68.79
45285;BME280;31026;43.780;25.948;2022-11-18T04:26:57;99778.63;;;18.77;69.40
45285;BME280;31026;43.780;25.948;2022-11-18T04:29:26;99791.19;;;18.76;69.45
45285;BME280;31026;43.780;25.948;2022-11-18T04:31:55;99783.59;;;18.72;69.79
45285;BME280;31026;43.780;25.948;2022-11-18T04:34:26;99797.38;;;18.77;69.83
45285;BME280;31026;43.780;25.948;2022-11-18T04:36:55;99789.97;;;18.71;69.97
45285;BME280;31026;43.780;25.948;2022-11-18T04:39:23;99800.31;;;18.65;69.81
45285;BME280;31026;43.780;25.948;2022-11-18T04:41:51;99803.66;;;18.67;70.40
45285;BME280;31026;43.780;25.948;2022-11-18T04:44:23;99801.31;;;19.17;69.08
45285;BME280;31026;43.780;25.948;2022-11-18T04:46:52;99805.09;;;19.40;68.65
45285;BME280;31026;43.780;25.948;2022-11-18T04:49:20;99809.59;;;19.74;68.34
45285;BME280;31026;43.780;25.948;2022-11-18T04:51:52;99788.84;;;20.17;66.97
45285;BME280;31026;43.780;25.948;2022-11-18T04:54:21;99770.75;;;20.52;66.28
45285;BME280;31026;43.780;25.948;2022-11-18T04:56:50;99796.59;;;20.37;66.75
45285;BME280;31026;43.780;25.948;2022-11-18T04:59:19;99795.91;;;20.26;66.96
45285;BME280;31026;43.780;25.948;2022-11-18T05:01:48;99794.88;;;20.03;68.27
45285;BME280;31026;43.780;25.948;2022-11-18T05:04:17;99795.84;;;19.77;68.54
45285;BME280;31026;43.780;25.948;2022-11-18T05:06:45;99800.13;;;19.54;68.97
45285;BME280;31026;43.780;25.948;2022-11-18T05:09:17;99819.84;;;19.36;69.19
45285;BME280;31026;43.780;25.948;2022-11-18T05:11:45;99815.56;;;19.25;69.48
45285;BME280;31026;43.780;25.948;2022-11-18T05:14:26;99802.28;;;19.16;69.67
45285;BME280;31026;43.780;25.948;2022-11-18T05:16:55;99807.63;;;19.07;70.01
45285;BME280;31026;43.780;25.948;2022-11-18T05:19:24;99797.69;;;19.00;70.22
45285;BME280;31026;43.780;25.948;2022-11-18T05:21:53;99798.03;;;18.97;70.31
45285;BME280;31026;43.780;25.948;2022-11-18T05:24:24;99789.13;;;18.88;70.24
45285;BME280;31026;43.780;25.948;2022-11-18T05:26:52;99799.13;;;18.86;70.99
45285;BME280;31026;43.780;25.948;2022-11-18T05:29:21;99808.16;;;18.85;70.57
45285;BME280;31026;43.780;25.948;2022-11-18T05:31:49;99790.72;;;18.81;70.58
45285;BME280;31026;43.780;25.948;2022-11-18T05:34:18;99795.59;;;18.85;70.67
45285;BME280;31026;43.780;25.948;2022-11-18T05:36:46;99785.13;;;18.92;70.32
45285;BME280;31026;43.780;25.948;2022-11-18T05:39:15;99808.22;;;18.93;70.99
45285;BME280;31026;43.780;25.948;2022-11-18T05:41:46;99816.25;;;18.93;71.29
45285;BME280;31026;43.780;25.948;2022-11-18T05:44:27;99807.00;;;18.87;71.44
45285;BME280;31026;43.780;25.948;2022-11-18T05:46:55;99794.66;;;18.95;70.97
45285;BME280;31026;43.780;25.948;2022-11-18T05:49:24;99797.69;;;19.00;71.03
45285;BME280;31026;43.780;25.948;2022-11-18T05:51:52;99803.22;;;18.98;71.70
45285;BME280;31026;43.780;25.948;2022-11-18T05:54:20;99793.88;;;19.02;71.34
45285;BME280;31026;43.780;25.948;2022-11-18T05:56:52;99798.94;;;19.14;71.02
45285;BME280;31026;43.780;25.948;2022-11-18T05:59:20;99798.63;;;19.17;70.93
45285;BME280;31026;43.780;25.948;2022-11-18T06:01:49;99786.56;;;19.13;70.75
45285;BME280;31026;43.780;25.948;2022-11-18T06:04:19;99807.16;;;19.12;71.05
45285;BME280;31026;43.780;25.948;2022-11-18T06:06:49;99819.41;;;19.15;70.91
45285;BME280;31026;43.780;25.948;2022-11-18T06:09:20;99825.44;;;19.17;70.85
45285;BME280;31026;43.780;25.948;2022-11-18T06:11:54;99823.28;;;19.20;70.38
45285;BME280;31026;43.780;25.948;2022-11-18T06:14:24;99811.06;;;19.68;69.86
45285;BME280;31026;43.780;25.948;2022-11-18T06:16:55;99818.88;;;19.88;69.82
45285;BME280;31026;43.780;25.948;2022-11-18T06:19:25;99791.72;;;20.16;69.64
45285;BME280;31026;43.780;25.948;2022-11-18T06:21:54;99810.38;;;20.25;69.63
45285;BME280;31026;43.780;25.948;2022-11-18T06:24:22;99806.16;;;20.48;69.12
45285;BME280;31026;43.780;25.948;2022-11-18T06:26:51;99808.50;;;20.51;68.81
45285;BME280;31026;43.780;25.948;2022-11-18T06:29:22;99785.50;;;20.48;69.24
45285;BME280;31026;43.780;25.948;2022-11-18T06:31:50;99810.00;;;20.45;69.17
45285;BME280;31026;43.780;25.948;2022-11-18T06:34:19;99808.69;;;20.24;69.47
45285;BME280;31026;43.780;25.948;2022-11-18T06:36:47;99810.00;;;20.12;70.09
45285;BME280;31026;43.780;25.948;2022-11-18T06:39:15;99807.78;;;19.91;70.39
45285;BME280;31026;43.780;25.948;2022-11-18T06:41:44;99819.69;;;19.80;70.66
45285;BME280;31026;43.780;25.948;2022-11-18T06:44:13;99812.91;;;19.68;71.03
45285;BME280;31026;43.780;25.948;2022-11-18T06:46:41;99804.34;;;19.64;71.30
45285;BME280;31026;43.780;25.948;2022-11-18T06:49:25;99791.38;;;19.52;71.40
45285;BME280;31026;43.780;25.948;2022-11-18T06:51:54;99795.59;;;19.54;71.60
45285;BME280;31026;43.780;25.948;2022-11-18T06:54:23;99788.38;;;19.55;71.14
45285;BME280;31026;43.780;25.948;2022-11-18T06:56:51;99792.44;;;19.59;70.92
45285;BME280;31026;43.780;25.948;2022-11-18T06:59:19;99781.84;;;19.57;71.09
45285;BME280;31026;43.780;25.948;2022-11-18T07:01:51;99792.13;;;19.62;71.02
45285;BME280;31026;43.780;25.948;2022-11-18T07:04:21;99779.16;;;19.57;71.50
45285;BME280;31026;43.780;25.948;2022-11-18T07:06:49;99795.59;;;19.54;71.60
45285;BME280;31026;43.780;25.948;2022-11-18T07:09:17;99791.38;;;19.52;72.37
45285;BME280;31026;43.780;25.948;2022-11-18T07:11:46;99795.47;;;19.64;72.01
45285;BME280;31026;43.780;25.948;2022-11-18T07:14:14;99778.41;;;19.73;71.87
45285;BME280;31026;43.780;25.948;2022-11-18T07:16:42;99772.06;;;19.74;72.17
45285;BME280;31026;43.780;25.948;2022-11-18T07:19:13;99787.47;;;19.72;72.43
45285;BME280;31026;43.780;25.948;2022-11-18T07:21:42;99790.16;;;19.80;72.50
45285;BME280;31026;43.780;25.948;2022-11-18T07:24:11;99781.44;;;19.78;72.81
45285;BME280;31026;43.780;25.948;2022-11-18T07:26:39;99788.41;;;19.63;73.73
45285;BME280;31026;43.780;25.948;2022-11-18T07:29:08;99804.19;;;19.66;72.94
45285;BME280;31026;43.780;25.948;2022-11-18T07:31:37;99783.06;;;19.63;72.58
45285;BME280;31026;43.780;25.948;2022-11-18T07:34:05;99806.00;;;19.65;72.81
45285;BME280;31026;43.780;25.948;2022-11-18T07:36:36;99801.16;;;19.61;72.82
45285;BME280;31026;43.780;25.948;2022-11-18T07:39:07;99801.81;;;19.55;72.99
45285;BME280;31026;43.780;25.948;2022-11-18T07:41:37;99802.47;;;19.57;73.19
45285;BME280;31026;43.780;25.948;2022-11-18T07:44:06;99798.13;;;19.56;73.06
45285;BME280;31026;43.780;25.948;2022-11-18T07:46:35;99809.84;;;19.55;73.31
45285;BME280;31026;43.780;25.948;2022-11-18T07:49:04;99799.44;;;19.52;73.54
45285;BME280;31026;43.780;25.948;2022-11-18T07:51:33;99807.47;;;19.52;73.61
45285;BME280;31026;43.780;25.948;2022-11-18T07:54:07;99797.09;;;19.48;73.53
45285;BME280;31026;43.780;25.948;2022-11-18T07:56:36;99804.31;;;19.48;73.42
45285;BME280;31026;43.780;25.948;2022-11-18T07:59:04;99787.53;;;19.46;73.97
45285;BME280;31026;43.780;25.948;2022-11-18T08:01:33;99798.75;;;19.50;73.86
45285;BME280;31026;43.780;25.948;2022-11-18T08:04:05;99791.78;;;19.65;73.58
45285;BME280;31026;43.780;25.948;2022-11-18T08:06:35;99802.38;;;19.75;73.57
45285;BME280;31026;43.780;25.948;2022-11-18T08:09:04;99791.78;;;19.65;73.90
45285;BME280;31026;43.780;25.948;2022-11-18T08:11:35;99785.31;;;19.76;73.60
45285;BME280;31026;43.780;25.948;2022-11-18T08:14:05;99779.56;;;19.71;73.70
45285;BME280;31026;43.780;25.948;2022-11-18T08:16:33;99778.03;;;19.68;73.87
45285;BME280;31026;43.780;25.948;2022-11-18T08:19:01;99774.06;;;19.80;73.17
45285;BME280;31026;43.780;25.948;2022-11-18T08:21:30;99759.63;;;19.81;73.75
45285;BME280;31026;43.780;25.948;2022-11-18T08:23:58;99773.09;;;19.90;74.09
45285;BME280;31026;43.780;25.948;2022-11-18T08:26:26;99761.69;;;19.96;73.21
45285;BME280;31026;43.780;25.948;2022-11-18T08:28:57;99769.75;;;19.96;73.19
45285;BME280;31026;43.780;25.948;2022-11-18T08:31:26;99770.41;;;19.98;73.86
45285;BME280;31026;43.780;25.948;2022-11-18T08:33:55;99765.38;;;19.95;73.58
45285;BME280;31026;43.780;25.948;2022-11-18T08:36:25;99768.03;;;19.86;74.07
45285;BME280;31026;43.780;25.948;2022-11-18T08:38:54;99763.34;;;19.89;74.16
45285;BME280;31026;43.780;25.948;2022-11-18T08:41:24;99764.69;;;19.84;74.21
45285;BME280;31026;43.780;25.948;2022-11-18T08:43:53;99758.31;;;19.85;74.25
45285;BME280;31026;43.780;25.948;2022-11-18T08:46:24;99756.63;;;19.76;74.55
45285;BME280;31026;43.780;25.948;2022-11-18T08:48:53;99754.94;;;19.75;74.92
45285;BME280;31026;43.780;25.948;2022-11-18T08:51:21;99746.84;;;19.67;74.77
45285;BME280;31026;43.780;25.948;2022-11-18T08:53:50;99748.53;;;19.68;74.74
45285;BME280;31026;43.780;25.948;2022-11-18T08:56:18;99740.13;;;19.63;75.10
45285;BME280;31026;43.780;25.948;2022-11-18T08:58:47;99731.94;;;19.64;75.07
45285;BME280;31026;43.780;25.948;2022-11-18T09:01:16;99740.47;;;19.60;75.15
45285;BME280;31026;43.780;25.948;2022-11-18T09:03:46;99732.44;;;19.60;75.00
45285;BME280;31026;43.780;25.948;2022-11-18T09:06:16;99711.13;;;19.58;75.14
45285;BME280;31026;43.780;25.948;2022-11-18T09:08:44;99726.44;;;19.74;74.85
45285;BME280;31026;43.780;25.948;2022-11-18T09:11:13;99731.16;;;19.72;75.16
45285;BME280;31026;43.780;25.948;2022-11-18T09:13:42;99726.78;;;19.71;75.24
45285;BME280;31026;43.780;25.948;2022-11-18T09:16:11;99730.78;;;19.75;74.86
45285;BME280;31026;43.780;25.948;2022-11-18T09:18:39;99720.53;;;19.71;75.14
45285;BME280;31026;43.780;25.948;2022-11-18T09:21:13;99714.34;;;19.70;75.31
45285;BME280;31026;43.780;25.948;2022-11-18T09:23:41;99740.53;;;19.76;75.39
45285;BME280;31026;43.780;25.948;2022-11-18T09:26:10;99716.56;;;19.75;74.75
45285;BME280;31026;43.780;25.948;2022-11-18T09:28:39;99722.25;;;19.72;74.67
45285;BME280;31026;43.780;25.948;2022-11-18T09:31:08;99711.03;;;19.84;74.74
45285;BME280;31026;43.780;25.948;2022-11-18T09:33:37;99705.97;;;19.81;75.40
45285;BME280;31026;43.780;25.948;2022-11-18T09:36:13;99696.78;;;19.92;75.65
45285;BME280;31026;43.780;25.948;2022-11-18T09:38:41;99696.94;;;20.15;75.23
45285;BME280;31026;43.780;25.948;2022-11-18T09:41:14;99675.97;;;20.19;76.17
45285;BME280;31026;43.780;25.948;2022-11-18T09:43:49;99659.03;;;20.18;75.73
45285;BME280;31026;43.780;25.948;2022-11-18T09:46:21;99662.00;;;20.96;73.82
45285;BME280;31026;43.780;25.948;2022-11-18T09:48:54;99645.19;;;20.46;75.15
45285;BME280;31026;43.780;25.948;2022-11-18T09:51:43;99638.75;;;20.16;75.79
45285;BME280;31026;43.780;25.948;2022-11-18T09:54:14;99636.53;;;20.11;76.12
45285;BME280;31026;43.780;25.948;2022-11-18T09:56:45;99642.09;;;20.01;77.18
45285;BME280;31026;43.780;25.948;2022-11-18T09:59:14;99627.84;;;19.93;77.75
45285;BME280;31026;43.780;25.948;2022-11-18T10:01:44;99614.97;;;19.88;78.36
45285;BME280;31026;43.780;25.948;2022-11-18T10:04:13;99631.22;;;19.78;78.22
45285;BME280;31026;43.780;25.948;2022-11-18T10:06:45;99623.00;;;19.80;77.69
45285;BME280;31026;43.780;25.948;2022-11-18T10:09:22;99618.13;;;19.83;77.59
45285;BME280;31026;43.780;25.948;2022-11-18T10:11:58;99606.06;;;19.79;77.26
45285;BME280;31026;43.780;25.948;2022-11-18T10:14:32;99598.34;;;19.84;77.05
45285;BME280;31026;43.780;25.948;2022-11-18T10:17:08;99602.72;;;19.77;76.78
45285;BME280;31026;43.780;25.948;2022-11-18T10:19:41;99583.25;;;19.75;75.97
45285;BME280;31026;43.780;25.948;2022-11-18T10:22:17;99570.34;;;19.71;76.11
45285;BME280;31026;43.780;25.948;2022-11-18T10:24:48;99583.25;;;19.75;75.75
45285;BME280;31026;43.780;25.948;2022-11-18T10:27:17;99578.75;;;19.76;75.94
45285;BME280;31026;43.780;25.948;2022-11-18T10:29:47;99568.84;;;19.76;75.73
45285;BME280;31026;43.780;25.948;2022-11-18T10:32:18;99564.81;;;19.80;75.40
45285;BME280;31026;43.780;25.948;2022-11-18T10:34:48;99552.09;;;19.74;75.29
45285;BME280;31026;43.780;25.948;2022-11-18T10:37:23;99553.44;;;19.78;74.77
45285;BME280;31026;43.780;25.948;2022-11-18T10:39:52;99546.34;;;19.85;74.81
45285;BME280;31026;43.780;25.948;2022-11-18T10:42:24;99538.31;;;19.94;74.79
45285;BME280;31026;43.780;25.948;2022-11-18T10:44:54;99543.69;;;19.94;74.84
45285;BME280;31026;43.780;25.948;2022-11-18T10:47:26;99547.69;;;19.98;74.51
45285;BME280;31026;43.780;25.948;2022-11-18T10:49:55;99529.59;;;20.00;74.59
45285;BME280;31026;43.780;25.948;2022-11-18T10:52:27;99541.28;;;20.07;74.49
45285;BME280;31026;43.780;25.948;2022-11-18T10:57:46;99528.66;;;20.24;75.26
45285;BME280;31026;43.780;25.948;2022-11-18T11:00:32;99521.78;;;20.21;75.49
45285;BME280;31026;43.780;25.948;2022-11-18T11:03:11;99526.34;;;20.13;75.01
45285;BME280;31026;43.780;25.948;2022-11-18T11:05:42;99531.22;;;20.09;75.36
45285;BME280;31026;43.780;25.948;2022-11-18T11:08:20;99527.88;;;20.07;76.01
45285;BME280;31026;43.780;25.948;2022-11-18T11:10:52;99516.81;;;20.02;76.82
45285;BME280;31026;43.780;25.948;2022-11-18T11:13:21;99517.97;;;20.08;77.05
45285;BME280;31026;43.780;25.948;2022-11-18T11:15:51;99501.69;;;20.09;76.88
45285;BME280;31026;43.780;25.948;2022-11-18T11:18:21;99494.81;;;20.06;77.75
45285;BME280;31026;43.780;25.948;2022-11-18T11:21:02;99513.09;;;20.11;78.20
45285;BME280;31026;43.780;25.948;2022-11-18T11:23:33;99504.38;;;20.09;77.66
45285;BME280;31026;43.780;25.948;2022-11-18T11:26:04;99498.66;;;20.12;78.51
45285;BME280;31026;43.780;25.948;2022-11-18T11:28:37;99495.44;;;20.17;77.86
45285;BME280;31026;43.780;25.948;2022-11-18T11:31:13;99486.03;;;20.21;77.60
45285;BME280;31026;43.780;25.948;2022-11-18T11:33:44;99480.47;;;20.31;79.18
45285;BME280;31026;43.780;25.948;2022-11-18T11:36:31;99484.78;;;20.40;78.52
45285;BME280;31026;43.780;25.948;2022-11-18T11:39:09;99482.41;;;20.45;77.62
45285;BME280;31026;43.780;25.948;2022-11-18T11:41:46;99458.44;;;20.43;77.45
45285;BME280;31026;43.780;25.948;2022-11-18T11:44:21;99464.97;;;20.41;77.90
45285;BME280;31026;43.780;25.948;2022-11-18T11:46:56;99442.16;;;20.37;78.01
45285;BME280;31026;43.780;25.948;2022-11-18T11:49:42;99462.00;;;20.36;78.26
45285;BME280;31026;43.780;25.948;2022-11-18T11:52:17;99466.75;;;20.25;78.35
45285;BME280;31026;43.780;25.948;2022-11-18T11:54:51;99464.88;;;20.26;77.70
45285;BME280;31026;43.780;25.948;2022-11-18T11:57:28;99455.72;;;20.12;78.02
45285;BME280;31026;43.780;25.948;2022-11-18T12:00:00;99465.97;;;20.09;78.11
45285;BME280;31026;43.780;25.948;2022-11-18T12:02:39;99446.03;;;20.03;78.26
45285;BME280;31026;43.780;25.948;2022-11-18T12:05:16;99461.97;;;20.04;77.58
45285;BME280;31026;43.780;25.948;2022-11-18T12:07:48;99460.63;;;20.00;78.36
45285;BME280;31026;43.780;25.948;2022-11-18T12:10:26;99455.09;;;20.02;78.05
45285;BME280;31026;43.780;25.948;2022-11-18T12:13:01;99451.75;;;20.00;78.35
45285;BME280;31026;43.780;25.948;2022-11-18T12:15:41;99463.81;;;20.04;77.72
45285;BME280;31026;43.780;25.948;2022-11-18T12:18:14;99465.88;;;19.94;78.82
45285;BME280;31026;43.780;25.948;2022-11-18T12:20:47;99439.41;;;19.82;77.63
45285;BME280;31026;43.780;25.948;2022-11-18T12:23:17;99440.44;;;19.73;77.97
45285;BME280;31026;43.780;25.948;2022-11-18T12:25:56;99439.09;;;19.69;78.09
45285;BME280;31026;43.780;25.948;2022-11-18T12:28:26;99424.72;;;19.62;78.20
45285;BME280;31026;43.780;25.948;2022-11-18T12:33:41;99430.75;;;19.56;78.64
45285;BME280;31026;43.780;25.948;2022-11-18T12:36:09;99442.81;;;19.52;78.87
45285;BME280;31026;43.780;25.948;2022-11-18T12:38:51;99436.97;;;19.48;78.30
45285;BME280;31026;43.780;25.948;2022-11-18T12:44:17;99438.63;;;19.49;77.82
45285;BME280;31026;43.780;25.948;2022-11-18T12:46:50;99433.44;;;19.47;77.93
45285;BME280;31026;43.780;25.948;2022-11-18T12:52:03;99434.47;;;19.46;78.01
45285;BME280;31026;43.780;25.948;2022-11-18T12:54:32;99410.50;;;19.45;78.16
45285;BME280;31026;43.780;25.948;2022-11-18T12:57:02;99402.63;;;19.43;78.03
45285;BME280;31026;43.780;25.948;2022-11-18T12:59:35;99407.97;;;19.43;77.90
45285;BME280;31026;43.780;25.948;2022-11-18T13:02:18;99411.84;;;19.41;78.11
45285;BME280;31026;43.780;25.948;2022-11-18T13:07:31;99392.09;;;19.34;77.96
45285;BME280;31026;43.780;25.948;2022-11-18T13:10:18;99390.91;;;19.36;77.95
45285;BME280;31026;43.780;25.948;2022-11-18T13:12:48;99387.91;;;19.31;78.02
45285;BME280;31026;43.780;25.948;2022-11-18T13:15:20;99389.09;;;19.28;77.92
45285;BME280;31026;43.780;25.948;2022-11-18T13:18:04;99381.88;;;19.29;78.22
45285;BME280;31026;43.780;25.948;2022-11-18T13:20:33;99394.78;;;19.25;78.28
45285;BME280;31026;43.780;25.948;2022-11-18T13:23:03;99399.66;;;19.30;78.01